createdAt,value
2023-05-24T00:01:38.282Z,100609.72
2023-05-24T00:06:37.369Z,100594.22
2023-05-24T00:11:36.210Z,100606.25
2023-05-24T00:16:36.967Z,100600.69
2023-05-24T00:21:37.478Z,100591.41
2023-05-24T00:26:36.326Z,100584.13
2023-05-24T00:31:36.924Z,100578.41
2023-05-24T00:36:38.428Z,100583.22
2023-05-24T00:41:37.358Z,100584.97
2023-05-24T00:46:37.911Z,100589.53
2023-05-24T00:51:38.638Z,100583.59
2023-05-24T00:56:37.497Z,100594.63
2023-05-24T01:01:38.032Z,100598.38
2023-05-24T01:06:46.139Z,100583.50
2023-05-24T01:11:54.975Z,100593.09
2023-05-24T01:17:03.306Z,100592.41
2023-05-24T01:22:15.193Z,100602.00
2023-05-24T01:27:16.501Z,100609.88
2023-05-24T01:32:15.443Z,100611.19
2023-05-24T01:37:14.359Z,100619.00
2023-05-24T01:42:25.440Z,100610.91
2023-05-24T01:47:30.486Z,100605.81
2023-05-24T01:52:34.973Z,100610.72
2023-05-24T01:57:36.250Z,100614.94
2023-05-24T02:02:35.119Z,100626.06
2023-05-24T02:07:33.968Z,100621.81
2023-05-24T02:12:35.141Z,100621.81
2023-05-24T02:17:35.882Z,100624.88
2023-05-24T02:22:34.739Z,100627.09
2023-05-24T02:27:33.931Z,100617.53
2023-05-24T02:32:34.802Z,100623.41
2023-05-24T02:37:33.891Z,100628.88
2023-05-24T02:42:32.852Z,100621.97
2023-05-24T02:47:39.625Z,100622.81
2023-05-24T02:52:38.985Z,100616.63
2023-05-24T02:57:51.399Z,100620.00
2023-05-24T03:02:54.260Z,100618.91
2023-05-24T03:07:57.242Z,100627.75
2023-05-24T03:13:15.076Z,100635.03
2023-05-24T03:18:20.454Z,100632.94
2023-05-24T03:23:22.234Z,100633.53
2023-05-24T03:28:22.732Z,100627.91
2023-05-24T03:33:41.093Z,100628.59
2023-05-24T03:38:40.859Z,100627.53
2023-05-24T03:43:39.914Z,100628.22
2023-05-24T03:48:47.737Z,100630.50
2023-05-24T03:53:46.858Z,100641.72
2023-05-24T03:58:45.653Z,100645.78
2023-05-24T04:03:46.192Z,100653.09
2023-05-24T04:08:46.501Z,100652.38
2023-05-24T04:13:45.941Z,100656.72
2023-05-24T04:18:45.606Z,100666.94
2023-05-24T04:23:44.632Z,100663.81
2023-05-24T04:28:45.586Z,100666.06
2023-05-24T04:33:46.349Z,100669.66
2023-05-24T04:38:47.415Z,100666.44
2023-05-24T04:43:47.659Z,100673.59
2023-05-24T04:48:46.482Z,100670.16
2023-05-24T04:53:45.391Z,100674.25
2023-05-24T04:58:44.256Z,100680.59
2023-05-24T05:03:46.104Z,100676.66
2023-05-24T05:08:45.125Z,100684.28
2023-05-24T05:13:44.476Z,100689.09
2023-05-24T05:18:44.718Z,100694.22
2023-05-24T05:23:43.536Z,100687.47
2023-05-24T05:28:42.439Z,100688.50
2023-05-24T05:33:41.250Z,100693.53
2023-05-24T05:38:41.538Z,100701.56
2023-05-24T05:43:40.601Z,100716.22
2023-05-24T05:48:39.740Z,100721.59
2023-05-24T05:53:38.824Z,100726.41
2023-05-24T05:58:39.684Z,100725.44
2023-05-24T06:03:38.641Z,100726.97
2023-05-24T06:08:37.606Z,100733.06
2023-05-24T06:13:36.548Z,100732.06
2023-05-24T06:18:36.897Z,100731.66
2023-05-24T06:23:36.732Z,100730.78
2023-05-24T06:28:35.861Z,100733.75
2023-05-24T06:33:37.914Z,100738.63
2023-05-24T06:38:37.243Z,100730.56
2023-05-24T06:43:36.420Z,100732.16
2023-05-24T06:48:37.251Z,100734.34
2023-05-24T06:53:36.607Z,100733.88
2023-05-24T06:58:35.425Z,100730.72
2023-05-24T07:03:34.222Z,100719.50
2023-05-24T07:08:34.510Z,100725.44
2023-05-24T07:13:33.317Z,100728.88
2023-05-24T07:18:32.316Z,100725.69
2023-05-24T07:23:31.327Z,100727.13
2023-05-24T07:28:31.813Z,100725.81
2023-05-24T07:33:30.619Z,100722.31
2023-05-24T07:38:31.180Z,100726.81
2023-05-24T07:43:31.695Z,100721.63
2023-05-24T07:48:30.752Z,100732.81
2023-05-24T07:53:30.013Z,100739.03
2023-05-24T07:58:29.303Z,100723.25
2023-05-24T08:03:30.082Z,100728.50
2023-05-24T08:08:29.032Z,100733.09
2023-05-24T08:13:29.175Z,100725.59
2023-05-24T08:18:29.408Z,100727.56
2023-05-24T08:23:30.105Z,100729.09
2023-05-24T08:28:30.841Z,100729.84
2023-05-24T08:33:31.229Z,100725.66
2023-05-24T08:38:30.057Z,100734.50
2023-05-24T08:43:32.816Z,100719.78
2023-05-24T08:48:33.382Z,100725.50
2023-05-24T08:53:38.029Z,100720.03
2023-05-24T08:58:37.562Z,100716.25
2023-05-24T09:03:39.466Z,100715.22
2023-05-24T09:08:39.218Z,100710.06
2023-05-24T09:13:39.606Z,100717.31
2023-05-24T09:18:41.340Z,100703.75
2023-05-24T09:23:40.580Z,100712.13
2023-05-24T09:28:44.682Z,100713.44
2023-05-24T09:33:45.178Z,100706.19
2023-05-24T09:38:44.235Z,100705.44
2023-05-24T09:43:50.489Z,100697.44
2023-05-24T09:49:00.051Z,100701.91
2023-05-24T09:53:59.669Z,100692.38
2023-05-24T09:58:58.364Z,100684.19
2023-05-24T10:04:04.244Z,100671.75
2023-05-24T10:09:08.173Z,100676.66
2023-05-24T10:14:08.401Z,100675.50
2023-05-24T10:19:08.801Z,100674.59
2023-05-24T10:24:11.178Z,100668.63
2023-05-24T10:29:18.133Z,100652.97
2023-05-24T10:34:19.002Z,100655.47
2023-05-24T10:39:21.632Z,100661.16
2023-05-24T10:44:21.517Z,100652.06
2023-05-24T10:49:21.787Z,100642.22
2023-05-24T10:54:27.388Z,100630.09
2023-05-24T10:59:31.667Z,100634.53
2023-05-24T11:04:37.871Z,100623.78
2023-05-24T11:09:36.980Z,100617.16
2023-05-24T11:14:38.525Z,100611.84
2023-05-24T11:19:40.550Z,100617.97
2023-05-24T11:24:43.722Z,100611.00
2023-05-24T11:29:43.456Z,100596.28
2023-05-24T11:34:45.226Z,100602.66
2023-05-24T11:39:44.414Z,100594.25
2023-05-24T11:44:43.158Z,100584.63
2023-05-24T11:49:43.232Z,100582.06
2023-05-24T11:54:42.637Z,100577.13
2023-05-24T11:59:42.976Z,100575.59
2023-05-24T12:04:43.325Z,100573.97
2023-05-24T12:09:42.415Z,100570.38
2023-05-24T12:14:41.480Z,100567.88
2023-05-24T12:19:40.448Z,100558.09
2023-05-24T12:24:44.003Z,100561.06
2023-05-24T12:29:42.952Z,100545.75
2023-05-24T12:34:44.059Z,100538.44
2023-05-24T12:39:45.121Z,100540.72
2023-05-24T12:44:45.332Z,100540.28
2023-05-24T12:49:44.689Z,100539.06
2023-05-24T12:54:44.921Z,100536.91
2023-05-24T12:59:43.989Z,100535.38
2023-05-24T13:04:42.883Z,100535.94
2023-05-24T13:09:41.656Z,100531.59
2023-05-24T13:14:42.073Z,100519.38
2023-05-24T13:19:40.796Z,100509.78
2023-05-24T13:24:39.767Z,100519.81
2023-05-24T13:29:48.738Z,100504.66
2023-05-24T13:34:59.175Z,100507.69
2023-05-24T13:39:58.000Z,100496.53
2023-05-24T13:44:59.311Z,100500.84
2023-05-24T13:49:59.656Z,100497.47
2023-05-24T13:54:58.564Z,100498.88
2023-05-24T13:59:57.467Z,100503.84
2023-05-24T14:05:08.666Z,100497.00
2023-05-24T14:10:18.630Z,100500.53
2023-05-24T14:15:20.411Z,100495.69
2023-05-24T14:20:19.509Z,100496.56
2023-05-24T14:25:20.205Z,100493.63
2023-05-24T14:30:19.251Z,100490.13
2023-05-24T14:35:18.170Z,100482.38
2023-05-24T14:40:19.844Z,100486.16
2023-05-24T14:45:20.710Z,100483.84
2023-05-24T14:50:19.566Z,100486.19
2023-05-24T14:55:19.192Z,100480.81
2023-05-24T15:00:22.474Z,100478.88
2023-05-24T15:05:26.563Z,100480.13
2023-05-24T15:10:25.404Z,100469.06
2023-05-24T15:15:24.444Z,100474.63
2023-05-24T15:20:25.976Z,100473.09
2023-05-24T15:25:25.097Z,100477.31
2023-05-24T15:30:24.806Z,100475.91
2023-05-24T15:35:25.368Z,100475.78
2023-05-24T15:40:24.873Z,100484.31
2023-05-24T15:45:23.850Z,100485.75
2023-05-24T15:50:42.639Z,100483.00
2023-05-24T15:55:47.147Z,100489.84
2023-05-24T16:00:46.203Z,100488.59
2023-05-24T16:05:45.274Z,100503.66
2023-05-24T16:10:45.854Z,100502.75
2023-05-24T16:15:51.580Z,100513.56
2023-05-24T16:20:51.362Z,100515.69
2023-05-24T16:25:52.543Z,100511.94
2023-05-24T16:30:52.682Z,100536.88
2023-05-24T16:35:55.962Z,100535.00
2023-05-24T16:40:56.645Z,100535.06
2023-05-24T16:45:56.300Z,100544.50
2023-05-24T16:50:56.842Z,100542.84
2023-05-24T16:55:58.163Z,100553.25
2023-05-24T17:00:58.798Z,100556.78
2023-05-24T17:06:01.880Z,100572.72
2023-05-24T17:11:04.661Z,100582.69
2023-05-24T17:16:05.129Z,100586.25
2023-05-24T17:21:05.853Z,100598.50
2023-05-24T17:26:08.348Z,100590.53
2023-05-24T17:31:09.583Z,100591.75
2023-05-24T17:36:09.719Z,100591.00
2023-05-24T17:41:10.394Z,100596.75
2023-05-24T17:46:10.332Z,100595.72
2023-05-24T17:51:12.571Z,100592.75
2023-05-24T17:56:13.505Z,100598.72
2023-05-24T18:01:13.992Z,100602.69
2023-05-24T18:06:12.765Z,100613.97
2023-05-24T18:11:14.511Z,100624.28
2023-05-24T18:16:13.957Z,100617.41
2023-05-24T18:21:13.228Z,100628.63
2023-05-24T18:26:13.980Z,100627.88
2023-05-24T18:31:15.162Z,100647.94
2023-05-24T18:36:13.866Z,100658.25
2023-05-24T18:41:14.220Z,100666.53
2023-05-24T18:46:16.065Z,100674.88
2023-05-24T18:51:15.088Z,100680.78
2023-05-24T18:56:15.433Z,100680.22
2023-05-24T19:01:14.491Z,100686.13
2023-05-24T19:06:14.735Z,100686.25
2023-05-24T19:11:13.881Z,100692.69
2023-05-24T19:16:17.828Z,100707.63
2023-05-24T19:21:16.893Z,100708.66
2023-05-24T19:26:18.203Z,100718.06
2023-05-24T19:31:19.827Z,100714.53
2023-05-24T19:36:21.396Z,100705.97
2023-05-24T19:41:20.446Z,100707.53
2023-05-24T19:46:24.370Z,100707.72
2023-05-24T19:51:23.228Z,100708.94
2023-05-24T19:56:23.575Z,100698.16
2023-05-24T20:01:23.755Z,100691.78
2023-05-24T20:06:22.535Z,100682.88
2023-05-24T20:11:21.884Z,100683.94
2023-05-24T20:16:27.032Z,100680.25
2023-05-24T20:21:26.812Z,100681.97
2023-05-24T20:26:27.897Z,100686.88
2023-05-24T20:31:28.275Z,100695.31
2023-05-24T20:36:28.274Z,100700.50
2023-05-24T20:41:30.484Z,100697.50
2023-05-24T20:46:30.948Z,100701.03
2023-05-24T20:51:29.877Z,100703.91
2023-05-24T20:56:28.774Z,100716.31
2023-05-24T21:01:28.010Z,100716.47
2023-05-24T21:06:28.364Z,100716.59
2023-05-24T21:11:27.855Z,100726.97
2023-05-24T21:16:27.156Z,100739.38
2023-05-24T21:21:29.690Z,100734.97
2023-05-24T21:26:28.436Z,100736.78
2023-05-24T21:31:29.859Z,100741.28
2023-05-24T21:36:32.807Z,100747.44
2023-05-24T21:41:31.590Z,100749.94
2023-05-24T21:46:34.243Z,100749.88
2023-05-24T21:51:37.621Z,100753.34
2023-05-24T21:56:36.537Z,100746.25
2023-05-24T22:01:35.423Z,100746.72
2023-05-24T22:06:36.499Z,100735.47
2023-05-24T22:11:41.151Z,100737.25
2023-05-24T22:16:40.138Z,100745.78
2023-05-24T22:21:43.642Z,100732.81
2023-05-24T22:26:47.209Z,100734.84
2023-05-24T22:31:46.329Z,100739.38
2023-05-24T22:36:48.035Z,100744.72
2023-05-24T22:41:46.982Z,100753.78
2023-05-24T22:46:46.441Z,100753.78
2023-05-24T22:51:48.349Z,100750.88
2023-05-24T22:56:47.254Z,100747.97
2023-05-24T23:01:45.967Z,100742.38
2023-05-24T23:06:47.976Z,100740.84
2023-05-24T23:11:46.900Z,100743.81
2023-05-24T23:16:46.233Z,100740.91
2023-05-24T23:21:46.509Z,100739.56
2023-05-24T23:26:45.260Z,100741.84
2023-05-24T23:31:44.142Z,100745.13
2023-05-24T23:36:44.661Z,100741.06
2023-05-24T23:41:44.831Z,100739.69
2023-05-24T23:46:43.776Z,100746.50
2023-05-24T23:51:42.533Z,100734.72
2023-05-24T23:56:42.896Z,100744.50
